Lincoln, NE

10:22 AM CST on February 23, 2017 (GMT -0600)
30th and South Street Neighborhood | | Change Station
Active Advisory: Winter Weather Advisory

Elev 1214 ft 40.79 °N, 96.68 °W | Updated 3 minutes ago

Overcast
Overcast
37.6 °F
Feels Like 34 °F
N
4.2
Wind Variable Wind from East

Today
High -- | Low -- °F
--% Chance of Precip.
Yesterday
High -- | Low -- °F
Precip. -- in
Pressure 29.73 in
Visibility 10.0 miles
Clouds Overcast 600 ft
Windchill 34 °F
Dew Point 34 °F
Humidity 88%
Rainfall 0.00 in
Snow Depth Not available.
7:09 AM 6:11 PM
Waning Crescent, 10% visible
METAR KLNK 231554Z 05018KT 10SM OVC006 03/01 A2972 RMK AO2 SLP068 T00280011
Pressure 29.73 in
Visibility 10.0 miles
Clouds Overcast 600 ft
Windchill 34 °F
Dew Point 34 °F
Humidity 88%
Rainfall 0.00 in
Snow Depth Not available.
7:09 AM 6:11 PM
Waning Crescent, 10% visible
METAR KLNK 231554Z 05018KT 10SM OVC006 03/01 A2972 RMK AO2 SLP068 T00280011

Get Your Daily Forecast Email!

Thanks for signing up!

Be on the lookout for a verification email in your inbox.

You'll start receiving the daily forecast at 8 AM.

×

10-Day Weather Forecast

Almanac

Astronomy

Feb. 23, 2017 Rise Set
Actual Time
Civil Twilight
Nautical Twilight
Astronomical Twilight
Moon
Length of Visible Light
Length of Day
Tomorrow will be .
, % of the Moon is Illuminated

Today's Extremes

State Highs State Lows

Community

WunderPhotos

Upload Photos

1,962,540 photos uploaded!

WunderBlog® & News

Nearby

Air Quality

  Air Quality AQ Index Pollutant
Not available.

Snow Depth

Station Depth Elevation

Earthquake Activity

City Distance Mag. Time & Date
Minimum magnitude displayed is 2.5.

Coastal Water Temperatures

Place Temperature

Stations

Nearby Weather Stations

Station Location Temp. Windchill Dew Point Humidity Wind Precip. Elev Updated Type
                   

Watches & Warnings

Winter Weather Advisory
Issued: 4:20 AM CST Feb. 23, 2017 – National Weather Service

... Winter Weather Advisory in effect from 6 am Friday to midnight
CST Friday night...

The National Weather Service in Omaha/valley has issued a Winter
Weather Advisory for snow and blowing snow, which is in effect
from 6 am Friday to midnight CST Friday night.


* Timing... rain will change to snow late Thursday night and Friday
morning with snow continuing into Friday afternoon before ending
Friday evening.

* Snow accumulations... snow accumulations of 3 to 5 inches are
expected with locally higher amounts in isolated locations.

* Impact... the combination of the snow and gusty winds will create
blowing and drifting snow and reduced visibilities that will
make travel hazardous.

Precautionary/preparedness actions...

A Winter Weather Advisory for snow and blowing snow means that
periods of snow with blowing snow will cause primarily travel
difficulties. Be prepared for snow covered roads and limited
visibilities, and use extra caution while driving.



Fobert